Time;durP1;ratioP1;P1;durP2;ratioP2;P2;SDS_P1;SDS_P2;PMS_P1;PMS_P2;Temp;Humidity;BMP_temperature;BMP_pressure;BME280_temperature;BME280_humidity;BME280_pressure;Samples;Min_cycle;Max_cycle;Signal;HPM_P1;HPM_P2
2022/09/14 00:01:54;;;;;;;0.30;0.30;;;;;;;15.03;83.52;98701.91;5146897;27;20019;-82
2022/09/14 00:04:20;;;;;;;0.30;0.30;;;;;;;15.08;83.86;98694.69;5128024;27;20045;-81
2022/09/14 00:06:46;;;;;;;0.30;0.30;;;;;;;15.06;84.44;98695.69;5128299;27;20023;-81
2022/09/14 00:09:19;;;;;;;0.40;0.40;;;;;;;15.09;83.74;98701.63;5128352;27;20055;-78
2022/09/14 00:11:45;;;;;;;0.30;0.30;;;;;;;15.09;84.56;98704.22;5147022;27;20054;-80
2022/09/14 00:14:11;;;;;;;0.30;0.30;;;;;;;15.09;84.98;98708.59;5146712;27;20071;-80
2022/09/14 00:16:39;;;;;;;0.30;0.30;;;;;;;14.98;84.87;98698.75;5146540;27;20027;-80
2022/09/14 00:19:19;;;;;;;0.30;0.30;;;;;;;14.95;84.63;98711.97;5146482;27;20379;-81
2022/09/14 00:21:49;;;;;;;0.30;0.30;;;;;;;14.87;84.17;98707.97;5146625;27;20043;-79
2022/09/14 00:24:15;;;;;;;0.30;0.30;;;;;;;14.68;84.72;98713.31;5146516;28;20016;-77
2022/09/14 00:26:40;;;;;;;0.30;0.30;;;;;;;14.66;84.43;98709.97;5127859;28;20026;-77
2022/09/14 00:29:06;;;;;;;0.30;0.30;;;;;;;14.57;85.13;98720.91;5146296;28;20019;-78
2022/09/14 00:31:34;;;;;;;0.30;0.30;;;;;;;14.53;85.91;98725.44;5146564;28;20019;-79
2022/09/14 00:34:01;;;;;;;0.30;0.30;;;;;;;14.40;86.54;98706.94;5146357;28;20026;-80
2022/09/14 00:36:28;;;;;;;0.30;0.30;;;;;;;14.41;86.98;98716.44;5146555;28;20133;-80
2022/09/14 00:38:59;;;;;;;0.40;0.40;;;;;;;14.36;86.73;98713.25;5127870;28;20555;-80
2022/09/14 00:41:28;;;;;;;0.30;0.30;;;;;;;14.43;87.40;98724.19;5146382;28;20051;-80
2022/09/14 00:44:01;;;;;;;0.30;0.30;;;;;;;14.46;87.50;98718.81;5146267;28;20027;-80
2022/09/14 00:46:29;;;;;;;0.30;0.30;;;;;;;14.45;87.47;98718.00;5146248;28;20026;-79
2022/09/14 00:48:58;;;;;;;0.30;0.30;;;;;;;14.34;87.28;98721.16;5146061;28;20386;-80
2022/09/14 00:51:25;;;;;;;0.30;0.30;;;;;;;14.37;87.53;98715.78;5127290;28;20043;-79
2022/09/14 00:53:51;;;;;;;0.30;0.30;;;;;;;14.34;87.00;98718.56;5119596;28;20027;-80
2022/09/14 00:56:16;;;;;;;0.30;0.30;;;;;;;14.30;87.23;98721.38;5127990;28;20022;-79
2022/09/14 00:58:44;;;;;;;0.30;0.30;;;;;;;14.18;86.91;98712.41;5127996;28;20082;-80
2022/09/14 01:01:10;;;;;;;0.40;0.40;;;;;;;14.15;87.07;98709.97;5147496;27;20019;-80
2022/09/14 01:03:36;;;;;;;0.30;0.30;;;;;;;14.19;86.10;98721.91;5131346;27;20077;-79
2022/09/14 01:06:37;;;;;;;0.35;0.35;;;;;;;14.06;86.10;98712.09;5150195;27;20031;-80
2022/09/14 01:09:37;;;;;;;0.30;0.30;;;;;;;14.07;86.94;98721.63;5130649;27;20031;-80
2022/09/14 01:12:24;;;;;;;0.30;0.30;;;;;;;14.05;86.61;98722.63;5131623;27;20019;-80
2022/09/14 01:14:59;;;;;;;0.30;0.30;;;;;;;13.95;86.94;98711.78;5150242;27;20023;-81
2022/09/14 01:17:35;;;;;;;0.30;0.30;;;;;;;13.94;87.13;98713.56;5149981;27;20054;-81
2022/09/14 01:20:30;;;;;;;0.35;0.35;;;;;;;13.92;87.03;98706.72;5149778;27;20034;-81
2022/09/14 01:23:14;;;;;;;0.50;0.50;;;;;;;13.90;87.32;98708.59;5131317;27;20023;-81
2022/09/14 01:25:55;;;;;;;0.30;0.30;;;;;;;13.84;87.30;98707.97;5131155;27;20015;-81
2022/09/14 01:28:38;;;;;;;0.30;0.30;;;;;;;13.83;87.31;98706.28;5149946;27;20051;-82
2022/09/14 01:31:12;;;;;;;0.30;0.30;;;;;;;13.74;87.15;98698.88;5149642;27;20026;-81
2022/09/14 01:33:45;;;;;;;0.30;0.30;;;;;;;13.76;87.76;98704.88;5131179;27;20023;-80
2022/09/14 01:36:13;;;;;;;0.30;0.30;;;;;;;13.74;88.01;98698.88;5130969;27;20416;-81
2022/09/14 01:38:52;;;;;;;0.30;0.30;;;;;;;13.68;87.92;98694.84;5149598;27;20030;-80
2022/09/14 01:41:22;;;;;;;0.40;0.40;;;;;;;13.74;87.97;98706.72;5131256;27;20053;-81
2022/09/14 01:43:53;;;;;;;0.38;0.38;;;;;;;13.67;88.00;98694.91;5151348;27;20023;-81
2022/09/14 01:46:33;;;;;;;1.05;0.95;;;;;;;13.65;88.20;98707.16;5151002;27;20024;-82
2022/09/14 01:49:15;;;;;;;0.30;0.30;;;;;;;13.63;88.41;98707.25;5149396;27;20027;-82
2022/09/14 01:51:50;;;;;;;0.30;0.30;;;;;;;13.47;88.42;98689.72;5149136;27;20074;-78
2022/09/14 01:54:25;;;;;;;0.70;0.70;;;;;;;13.60;88.32;98717.81;5149246;27;20047;-81
2022/09/14 01:56:55;;;;;;;0.50;0.50;;;;;;;13.55;88.59;98706.75;5130924;27;20019;-81
2022/09/14 01:59:24;;;;;;;0.30;0.30;;;;;;;13.55;88.43;98712.84;5149323;27;20470;-81
2022/09/14 02:02:06;;;;;;;0.40;0.40;;;;;;;13.59;87.99;98711.78;5148892;27;20030;-81
2022/09/14 02:04:37;;;;;;;0.40;0.40;;;;;;;13.59;87.74;98710.94;5149074;27;20019;-81
2022/09/14 02:07:02;;;;;;;0.40;0.40;;;;;;;13.59;87.99;98714.38;5149035;27;20030;-81
2022/09/14 02:09:28;;;;;;;0.30;0.30;;;;;;;13.68;88.15;98722.66;5149076;27;20071;-81
2022/09/14 02:11:59;;;;;;;0.30;0.30;;;;;;;13.57;88.08;98715.38;5148859;27;20455;-81
2022/09/14 02:14:25;;;;;;;0.40;0.40;;;;;;;13.67;87.93;98732.28;5130277;27;20071;-81
2022/09/14 02:16:50;;;;;;;0.30;0.30;;;;;;;13.59;88.59;98716.16;5148881;27;20074;-81
2022/09/14 02:19:16;;;;;;;0.32;0.32;;;;;;;13.63;88.43;98722.88;5148736;27;20031;-81
2022/09/14 02:21:41;;;;;;;0.40;0.40;;;;;;;13.62;87.88;98719.47;5148835;27;20019;-81
2022/09/14 02:24:08;;;;;;;0.30;0.30;;;;;;;13.61;88.47;98720.34;5148610;27;20027;-79
2022/09/14 02:26:34;;;;;;;0.40;0.40;;;;;;;13.58;88.56;98707.47;5130099;27;20019;-77
2022/09/14 02:29:00;;;;;;;0.30;0.30;;;;;;;13.60;88.90;98718.69;5148743;27;20023;-76
2022/09/14 02:31:28;;;;;;;0.30;0.30;;;;;;;13.60;88.74;98721.28;5130073;27;20019;-76
2022/09/14 02:33:53;;;;;;;0.30;0.30;;;;;;;13.60;88.94;98718.69;5129682;27;20027;-76
2022/09/14 02:36:35;;;;;;;0.30;0.30;;;;;;;13.61;88.75;98717.75;5148406;27;20015;-76
2022/09/14 02:39:10;;;;;;;;;;;;;;;13.54;87.91;98711.16;5148856;27;20023;-76
2022/09/14 02:41:57;;;;;;;1.83;1.20;;;;;;;13.56;88.65;98717.13;5148748;27;19915;-77
2022/09/14 02:44:42;;;;;;;0.30;0.30;;;;;;;13.55;88.77;98714.59;5129662;27;20027;-77
2022/09/14 02:47:46;;;;;;;0.30;0.30;;;;;;;13.48;88.69;98711.41;5148357;27;20492;-76
2022/09/14 02:50:14;;;;;;;0.40;0.40;;;;;;;13.52;89.05;98707.75;5078147;27;20071;-77
2022/09/14 02:52:58;;;;;;;0.30;0.30;;;;;;;13.40;89.09;98698.75;5129145;27;20062;-77
2022/09/14 02:55:28;;;;;;;0.30;0.30;;;;;;;13.44;89.45;98709.84;5148191;27;20027;-77
2022/09/14 02:58:06;;;;;;;0.30;0.30;;;;;;;13.45;89.41;98707.19;5146993;27;20036;-77
2022/09/14 03:00:40;;;;;;;0.40;0.40;;;;;;;13.42;89.69;98706.50;5128628;27;20122;-77
2022/09/14 03:03:08;;;;;;;0.38;0.38;;;;;;;13.45;89.74;98707.19;5146811;27;20050;-76
2022/09/14 03:05:34;;;;;;;2.92;2.28;;;;;;;13.45;89.72;98703.75;5128279;27;20171;-76
2022/09/14 03:08:01;;;;;;;0.30;0.30;;;;;;;13.48;90.00;98707.03;5129594;27;20023;-77
2022/09/14 03:10:27;;;;;;;0.30;0.30;;;;;;;13.47;89.53;98704.50;5129324;27;20034;-77
2022/09/14 03:12:53;;;;;;;0.25;0.25;;;;;;;13.50;89.75;98704.34;5147705;27;20024;-77
2022/09/14 03:15:18;;;;;;;0.75;0.75;;;;;;;13.47;89.61;98705.34;5147756;27;20378;-77
2022/09/14 03:17:46;;;;;;;0.30;0.30;;;;;;;13.40;89.72;98693.53;5128985;27;20034;-76
2022/09/14 03:20:12;;;;;;;0.30;0.30;;;;;;;13.42;89.48;98702.09;5147613;27;20034;-77
2022/09/14 03:22:38;;;;;;;0.30;0.30;;;;;;;13.37;89.67;98704.13;5147462;27;20047;-77
2022/09/14 03:25:03;;;;;;;0.40;0.40;;;;;;;13.36;89.18;98703.25;5146731;27;20042;-77
2022/09/14 03:27:29;;;;;;;0.40;0.40;;;;;;;13.32;89.80;98700.88;5146582;27;20057;-76
2022/09/14 03:29:54;;;;;;;0.32;0.32;;;;;;;13.35;89.41;98706.78;5146348;27;20049;-77
2022/09/14 03:32:19;;;;;;;0.30;0.30;;;;;;;13.36;89.64;98710.22;5147308;27;20119;-77
2022/09/14 03:34:44;;;;;;;0.30;0.30;;;;;;;13.33;89.63;98710.38;5128595;27;20015;-77
2022/09/14 03:37:10;;;;;;;0.30;0.30;;;;;;;13.33;89.39;98707.75;5128899;27;20111;-76
2022/09/14 03:39:36;;;;;;;0.30;0.30;;;;;;;13.31;89.63;98702.63;5147140;27;20086;-76
2022/09/14 03:42:01;;;;;;;0.40;0.40;;;;;;;13.31;90.07;98705.22;5128781;27;20023;-77
2022/09/14 03:44:27;;;;;;;0.30;0.30;;;;;;;13.30;90.05;98694.88;5146886;27;20420;-76
2022/09/14 03:46:52;;;;;;;0.30;0.30;;;;;;;13.31;89.96;98704.38;5147049;27;20031;-77
2022/09/14 03:49:17;;;;;;;0.40;0.40;;;;;;;13.32;89.83;98706.09;5146856;27;20022;-77
2022/09/14 03:51:43;;;;;;;0.30;0.30;;;;;;;13.32;89.98;98713.91;5146959;27;20094;-77
2022/09/14 03:54:08;;;;;;;0.30;0.30;;;;;;;13.30;90.13;98711.38;5146804;27;20026;-77
2022/09/14 03:56:33;;;;;;;0.30;0.30;;;;;;;13.30;89.81;98703.56;5128395;27;20356;-77
2022/09/14 03:58:59;;;;;;;0.30;0.30;;;;;;;13.31;89.86;98700.03;5128373;27;20027;-77
2022/09/14 04:01:24;;;;;;;0.30;0.30;;;;;;;13.29;89.91;98701.03;5146960;27;20023;-77
2022/09/14 04:03:50;;;;;;;0.30;0.30;;;;;;;13.29;89.50;98701.03;5128108;27;20051;-83
2022/09/14 04:06:17;;;;;;;0.40;0.40;;;;;;;13.29;89.50;98703.63;5146745;27;20030;-79
2022/09/14 04:08:43;;;;;;;0.30;0.30;;;;;;;13.26;89.61;98705.44;5128463;28;20023;-79
2022/09/14 04:11:10;;;;;;;0.30;0.30;;;;;;;13.18;89.78;98704.13;5146823;27;20052;-79
2022/09/14 04:13:37;;;;;;;0.30;0.30;;;;;;;13.13;90.18;98707.78;5146494;27;20027;-79
2022/09/14 04:16:03;;;;;;;0.30;0.30;;;;;;;13.07;90.05;98699.41;5146604;27;20019;-78
2022/09/14 04:18:28;;;;;;;0.30;0.30;;;;;;;13.12;89.84;98707.84;5128112;27;20030;-78
2022/09/14 04:21:03;;;;;;;0.30;0.30;;;;;;;13.05;89.74;98704.69;5128142;28;20356;-77
2022/09/14 04:23:29;;;;;;;0.30;0.30;;;;;;;13.07;89.34;98705.47;5146615;28;20023;-78
2022/09/14 04:25:55;;;;;;;0.30;0.30;;;;;;;13.13;90.04;98709.56;5146333;28;20102;-75
2022/09/14 04:28:21;;;;;;;0.30;0.30;;;;;;;13.13;89.85;98713.00;5146648;28;20087;-74
2022/09/14 04:31:01;;;;;;;0.30;0.30;;;;;;;13.14;89.89;98712.09;5128180;28;20475;-74
2022/09/14 04:33:31;;;;;;;0.30;0.30;;;;;;;13.14;90.03;98709.50;5146255;28;20030;-74
2022/09/14 04:35:58;;;;;;;0.30;0.30;;;;;;;13.19;89.93;98711.88;5147494;27;20048;-74
2022/09/14 04:38:24;;;;;;;0.40;0.40;;;;;;;13.12;90.07;98706.09;5150778;27;20098;-74
2022/09/14 04:40:49;;;;;;;0.30;0.30;;;;;;;13.17;90.28;98713.69;5142182;27;20088;-74
2022/09/14 04:43:15;;;;;;;0.40;0.40;;;;;;;13.10;90.38;98697.50;5150852;27;20019;-73
2022/09/14 04:45:40;;;;;;;0.30;0.30;;;;;;;13.19;90.69;98711.03;5150677;27;20385;-74
2022/09/14 04:48:05;;;;;;;0.30;0.30;;;;;;;13.22;90.76;98716.09;5150543;27;20022;-73
2022/09/14 04:50:31;;;;;;;0.40;0.40;;;;;;;13.27;91.09;98714.13;5150846;27;20027;-74
2022/09/14 04:52:56;;;;;;;0.40;0.40;;;;;;;13.30;91.06;98705.31;5150748;27;20050;-74
2022/09/14 04:55:23;;;;;;;0.32;0.32;;;;;;;13.41;91.19;98705.66;5150341;27;20032;-74
2022/09/14 04:57:49;;;;;;;0.35;0.35;;;;;;;13.58;91.85;98717.91;5131723;27;20361;-73
2022/09/14 05:00:14;;;;;;;0.30;0.30;;;;;;;13.80;91.96;98718.63;5150251;27;20023;-73
2022/09/14 05:02:40;;;;;;;0.30;0.30;;;;;;;14.00;92.26;98712.41;5132095;27;20030;-74
2022/09/14 05:05:06;;;;;;;0.30;0.30;;;;;;;14.17;92.81;98710.72;5150160;27;20023;-76
2022/09/14 05:07:32;;;;;;;0.30;0.30;;;;;;;14.40;93.00;98713.91;5131908;27;20027;-74
2022/09/14 05:09:57;;;;;;;0.30;0.30;;;;;;;14.44;93.12;98705.84;5149773;27;20023;-74
2022/09/14 05:12:22;;;;;;;0.30;0.30;;;;;;;14.52;92.79;98710.66;5150291;27;20031;-74
2022/09/14 05:14:48;;;;;;;0.30;0.30;;;;;;;14.66;93.20;98693.44;5131504;27;20051;-72
2022/09/14 05:17:13;;;;;;;0.30;0.30;;;;;;;14.85;92.99;98709.84;5150094;27;20101;-76
2022/09/14 05:19:38;;;;;;;0.30;0.30;;;;;;;14.91;93.94;98693.00;5149777;27;20027;-78
2022/09/14 05:22:04;;;;;;;0.20;0.20;;;;;;;15.06;93.28;98691.34;5150137;27;20027;-74
2022/09/14 05:24:29;;;;;;;0.20;0.20;;;;;;;15.14;92.56;98698.75;5131446;27;20035;-75
2022/09/14 05:26:54;;;;;;;0.20;0.20;;;;;;;15.08;92.47;98688.63;5149896;27;20035;-77
2022/09/14 05:29:20;;;;;;;0.30;0.30;;;;;;;15.25;92.98;98687.69;5150106;27;20057;-74
2022/09/14 05:31:46;;;;;;;0.30;0.30;;;;;;;15.38;93.23;98695.69;5150091;27;20497;-75
2022/09/14 05:34:12;;;;;;;0.30;0.30;;;;;;;15.65;93.25;98691.59;5149347;27;20140;-75
2022/09/14 05:36:39;;;;;;;0.20;0.20;;;;;;;16.08;94.09;98704.84;5149860;27;20018;-76
2022/09/14 05:39:05;;;;;;;0.30;0.30;;;;;;;16.53;94.07;98706.59;5131193;27;20035;-76
2022/09/14 05:41:30;;;;;;;0.22;0.22;;;;;;;16.76;94.29;98701.69;5149595;27;20170;-74
2022/09/14 05:44:00;;;;;;;0.20;0.20;;;;;;;17.29;96.49;98703.69;5149298;27;20023;-74
2022/09/14 05:46:25;;;;;;;0.20;0.20;;;;;;;17.82;94.90;98702.94;5148943;27;20023;-75
2022/09/14 05:48:51;;;;;;;0.30;0.30;;;;;;;18.24;93.69;98698.50;5149020;27;20039;-74
2022/09/14 05:51:19;;;;;;;0.20;0.20;;;;;;;18.58;94.79;98707.53;5149260;27;20027;-75
2022/09/14 05:53:52;;;;;;;0.20;0.20;;;;;;;19.05;95.87;98691.16;5130693;27;20019;-74
2022/09/14 05:56:18;;;;;;;0.25;0.25;;;;;;;19.41;94.95;98698.31;5149416;27;20022;-75
2022/09/14 05:58:45;;;;;;;0.20;0.20;;;;;;;19.76;90.00;98704.56;5149500;27;20549;-75
2022/09/14 06:01:14;;;;;;;0.20;0.20;;;;;;;19.80;88.67;98701.59;5131029;27;20031;-74
2022/09/14 06:03:40;;;;;;;0.20;0.20;;;;;;;20.08;92.06;98708.41;5130906;27;20019;-74
2022/09/14 06:06:08;;;;;;;0.20;0.20;;;;;;;20.53;92.01;98697.91;5149345;27;20027;-74
2022/09/14 06:08:33;;;;;;;0.20;0.20;;;;;;;20.64;88.04;98699.72;5149323;27;20027;-75
2022/09/14 06:11:20;;;;;;;0.20;0.20;;;;;;;21.07;88.70;98699.13;5130759;27;20023;-75
2022/09/14 06:13:46;;;;;;;0.77;0.70;;;;;;;21.41;86.44;98699.88;5149350;27;20047;-74
2022/09/14 06:16:18;;;;;;;0.20;0.20;;;;;;;21.43;86.82;98694.47;5149162;27;20019;-75
2022/09/14 06:18:45;;;;;;;0.20;0.20;;;;;;;21.83;86.83;98703.56;5149000;27;20027;-75
2022/09/14 06:21:15;;;;;;;0.20;0.20;;;;;;;21.97;87.16;98702.41;5150022;27;20076;-75
2022/09/14 06:23:42;;;;;;;0.20;0.20;;;;;;;22.08;87.90;98700.69;5132305;27;20029;-75
2022/09/14 06:26:07;;;;;;;0.20;0.20;;;;;;;22.21;87.78;98701.31;5159695;27;20053;-75
2022/09/14 06:28:34;;;;;;;0.20;0.20;;;;;;;22.74;87.30;98710.09;5130761;27;20019;-75
2022/09/14 06:30:59;;;;;;;0.20;0.20;;;;;;;23.02;87.91;98702.38;5149102;27;20023;-74
2022/09/14 06:33:25;;;;;;;0.20;0.20;;;;;;;23.25;85.44;98711.88;5149520;27;20052;-74
2022/09/14 06:35:54;;;;;;;0.10;0.10;;;;;;;23.62;86.93;98702.47;5148614;27;20114;-75
2022/09/14 06:38:19;;;;;;;0.10;0.10;;;;;;;23.60;78.33;98688.53;5148724;27;20463;-74
2022/09/14 06:40:52;;;;;;;0.20;0.20;;;;;;;23.26;76.45;98690.56;5148774;27;20034;-75
2022/09/14 06:43:17;;;;;;;0.20;0.20;;;;;;;23.30;81.14;98696.44;5148633;27;20027;-75
2022/09/14 06:45:43;;;;;;;0.20;0.20;;;;;;;23.40;78.10;98699.94;5148636;27;20051;-74
2022/09/14 06:48:08;;;;;;;0.10;0.10;;;;;;;23.37;72.63;98702.84;5148355;27;20015;-75
2022/09/14 06:50:33;;;;;;;0.20;0.20;;;;;;;23.28;74.79;98701.88;5148560;27;20019;-75
2022/09/14 06:52:59;;;;;;;0.10;0.10;;;;;;;23.22;72.07;98702.41;5148116;27;20272;-76
2022/09/14 06:55:24;;;;;;;0.30;0.30;;;;;;;23.26;74.13;98711.75;5148019;27;20114;-75
2022/09/14 06:57:49;;;;;;;0.10;0.10;;;;;;;23.19;72.18;98704.50;5148072;27;20027;-74
2022/09/14 07:00:15;;;;;;;0.20;0.20;;;;;;;22.88;67.93;98713.31;5147492;27;20374;-74
2022/09/14 07:02:41;;;;;;;0.20;0.20;;;;;;;23.02;70.72;98712.09;5129593;27;20076;-74
2022/09/14 07:05:07;;;;;;;0.20;0.20;;;;;;;22.78;67.24;98716.78;5147791;27;20019;-74
2022/09/14 07:07:32;;;;;;;3.53;1.55;;;;;;;22.51;67.19;98717.31;5147953;27;20031;-74
2022/09/14 07:09:57;;;;;;;0.20;0.20;;;;;;;22.00;66.70;98702.16;5129228;27;20015;-75
2022/09/14 07:12:23;;;;;;;0.20;0.20;;;;;;;21.90;67.54;98717.13;5147950;27;20111;-76
2022/09/14 07:14:48;;;;;;;0.20;0.20;;;;;;;22.02;66.06;98717.88;5147918;27;20042;-76
2022/09/14 07:17:15;;;;;;;0.20;0.20;;;;;;;22.08;62.02;98713.91;5147896;27;20019;-75
2022/09/14 07:19:41;;;;;;;0.20;0.20;;;;;;;22.44;66.45;98702.97;5147602;27;20099;-76
2022/09/14 07:22:07;;;;;;;0.20;0.20;;;;;;;22.82;64.15;98709.41;5147774;27;20019;-75
2022/09/14 07:24:32;;;;;;;0.20;0.20;;;;;;;22.58;66.13;98715.00;5147590;27;20054;-75
2022/09/14 07:26:58;;;;;;;0.20;0.20;;;;;;;22.88;66.56;98721.25;5128231;27;20087;-75
2022/09/14 07:29:23;;;;;;;0.77;0.77;;;;;;;22.92;65.85;98727.97;5146571;27;20366;-75
2022/09/14 07:31:51;;;;;;;0.20;0.20;;;;;;;22.92;65.87;98722.69;5147214;27;20382;-75
2022/09/14 07:34:16;;;;;;;0.20;0.20;;;;;;;23.11;62.88;98718.41;5147339;27;20030;-74
2022/09/14 07:36:42;;;;;;;0.22;0.22;;;;;;;22.92;65.70;98721.84;5147423;27;20019;-75
2022/09/14 07:39:10;;;;;;;0.20;0.20;;;;;;;23.28;68.50;98717.75;5147390;27;20079;-75
2022/09/14 07:41:36;;;;;;;0.25;0.25;;;;;;;23.85;65.11;98718.91;5147316;27;20047;-76
2022/09/14 07:44:05;;;;;;;10.02;1.58;;;;;;;24.65;66.93;98726.72;5147322;27;20047;-76
2022/09/14 07:46:32;;;;;;;0.20;0.20;;;;;;;25.31;68.86;98713.41;5147244;27;20025;-76
2022/09/14 07:48:59;;;;;;;0.10;0.10;;;;;;;25.88;64.62;98696.34;5146976;27;20023;-76
2022/09/14 07:51:27;;;;;;;0.20;0.20;;;;;;;25.86;59.23;98701.00;5146935;27;20035;-76
2022/09/14 07:53:52;;;;;;;0.20;0.20;;;;;;;25.64;58.65;98704.97;5147152;27;20030;-75
2022/09/14 07:56:20;;;;;;;0.47;0.47;;;;;;;25.38;61.50;98706.53;5146940;27;20039;-75
2022/09/14 07:58:46;;;;;;;0.15;0.15;;;;;;;25.27;63.25;98717.38;5147268;27;20049;-76
2022/09/14 08:01:14;;;;;;;0.10;0.10;;;;;;;25.27;60.78;98709.41;5147060;27;20023;-76
2022/09/14 08:03:44;;;;;;;0.20;0.20;;;;;;;25.61;57.67;98709.59;5146736;27;20030;-76
2022/09/14 08:06:16;;;;;;;0.10;0.10;;;;;;;25.78;57.66;98714.22;5146849;27;20027;-75
2022/09/14 08:08:43;;;;;;;1.10;0.77;;;;;;;25.69;55.99;98710.63;5146973;27;20074;-75
2022/09/14 08:11:11;;;;;;;0.10;0.10;;;;;;;25.49;57.63;98722.25;5146826;27;20015;-75
2022/09/14 08:13:41;;;;;;;0.20;0.20;;;;;;;25.34;60.33;98710.44;5128151;27;20479;-75
2022/09/14 08:16:07;;;;;;;0.20;0.20;;;;;;;25.45;61.59;98720.88;5128409;27;20094;-75
2022/09/14 08:18:34;;;;;;;0.10;0.10;;;;;;;25.85;55.80;98717.91;5146738;27;20019;-75
2022/09/14 08:21:14;;;;;;;0.10;0.10;;;;;;;25.98;56.56;98720.16;5146725;27;20030;-75
2022/09/14 08:23:41;;;;;;;2.97;1.65;;;;;;;25.72;55.80;98724.47;5146895;27;20023;-74
2022/09/14 08:26:21;;;;;;;0.20;0.20;;;;;;;24.96;50.98;98721.16;5146697;27;20138;-75
2022/09/14 08:28:48;;;;;;;0.10;0.10;;;;;;;24.79;53.33;98726.25;5146849;28;20031;-76
2022/09/14 08:31:16;;;;;;;0.20;0.20;;;;;;;24.65;52.44;98730.19;5146686;28;20015;-76
2022/09/14 08:33:48;;;;;;;0.20;0.20;;;;;;;24.41;53.31;98723.59;5146642;28;20023;-76
2022/09/14 08:36:15;;;;;;;;;;;;;;;24.42;50.41;98725.28;5128527;28;20015;-76
2022/09/14 08:38:40;;;;;;;0.10;0.10;;;;;;;24.21;52.06;98715.69;5146659;28;19907;-76
2022/09/14 08:41:24;;;;;;;0.20;0.20;;;;;;;24.07;51.18;98724.06;5146691;28;20080;-75
2022/09/14 08:43:49;;;;;;;0.20;0.20;;;;;;;23.70;52.61;98721.16;5146663;28;20023;-75
2022/09/14 08:46:38;;;;;;;0.20;0.20;;;;;;;24.19;51.27;98725.59;5127946;28;20027;-75
2022/09/14 08:49:17;;;;;;;0.20;0.20;;;;;;;24.25;48.91;98726.84;5146444;28;20027;-75
2022/09/14 08:51:43;;;;;;;0.20;0.20;;;;;;;24.35;51.33;98727.66;5146429;28;20129;-75
2022/09/14 08:54:10;;;;;;;0.20;0.20;;;;;;;24.88;49.70;98727.19;5146634;28;20027;-75
2022/09/14 08:56:40;;;;;;;0.20;0.20;;;;;;;25.45;45.75;98718.19;5146548;28;20068;-75
2022/09/14 08:59:24;;;;;;;0.30;0.30;;;;;;;25.11;43.74;98716.22;5146594;28;20023;-75
2022/09/14 09:02:21;;;;;;;0.10;0.10;;;;;;;24.91;46.96;98716.31;5146567;28;20027;-76
2022/09/14 09:05:06;;;;;;;0.20;0.20;;;;;;;24.76;45.49;98719.41;5145927;28;20049;-76
2022/09/14 09:08:06;;;;;;;0.20;0.20;;;;;;;25.20;43.44;98717.13;5146359;28;20035;-76
2022/09/14 09:10:36;;;;;;;0.20;0.20;;;;;;;26.09;42.64;98717.28;5128088;28;20031;-76
2022/09/14 09:13:05;;;;;;;0.20;0.20;;;;;;;26.21;42.62;98722.34;5146302;28;20381;-76
2022/09/14 09:15:36;;;;;;;0.20;0.20;;;;;;;26.34;42.95;98725.44;5146368;28;20030;-76
2022/09/14 09:18:14;;;;;;;1.10;1.00;;;;;;;27.13;43.44;98723.66;5146527;28;20015;-76
2022/09/14 09:20:46;;;;;;;0.20;0.20;;;;;;;27.75;41.07;98713.59;5127917;28;20034;-76
2022/09/14 09:23:16;;;;;;;0.20;0.20;;;;;;;28.11;40.55;98727.59;5149114;27;20034;-75
2022/09/14 09:25:56;;;;;;;0.10;0.10;;;;;;;28.25;38.64;98720.72;5149866;27;20035;-75
2022/09/14 09:28:24;;;;;;;0.20;0.20;;;;;;;28.11;39.48;98717.75;5149993;27;20086;-76
2022/09/14 09:30:52;;;;;;;0.10;0.10;;;;;;;28.60;38.26;98715.16;5149942;27;20264;-77
2022/09/14 09:33:24;;;;;;;0.10;0.10;;;;;;;28.76;39.15;98724.94;5131253;27;20027;-74
2022/09/14 09:35:51;;;;;;;0.17;0.17;;;;;;;28.77;37.37;98713.28;5131314;27;20051;-75
2022/09/14 09:38:23;;;;;;;0.20;0.20;;;;;;;28.85;37.24;98726.56;5149798;27;20024;-75
2022/09/14 09:40:53;;;;;;;0.10;0.10;;;;;;;29.11;38.32;98716.66;5149897;27;20023;-74
2022/09/14 09:43:20;;;;;;;0.10;0.10;;;;;;;29.55;36.70;98720.53;5131367;27;20044;-74
2022/09/14 09:45:47;;;;;;;0.10;0.10;;;;;;;29.08;37.17;98725.84;5149833;27;20031;-73
2022/09/14 09:48:13;;;;;;;0.10;0.10;;;;;;;28.54;36.52;98725.53;5149488;27;20501;-74
2022/09/14 09:51:00;;;;;;;0.10;0.10;;;;;;;28.47;34.60;98723.72;5149771;27;20037;-74
2022/09/14 09:53:27;;;;;;;0.10;0.10;;;;;;;28.32;35.07;98732.44;5129040;28;20219;-74
2022/09/14 09:55:52;;;;;;;0.10;0.10;;;;;;;27.74;34.78;98724.44;5110322;28;20027;-75
2022/09/14 09:58:36;;;;;;;0.10;0.10;;;;;;;27.40;35.06;98732.38;5128848;28;20094;-74
2022/09/14 10:01:18;;;;;;;0.35;0.35;;;;;;;27.53;36.42;98731.06;5128809;28;20038;-75
2022/09/14 10:03:59;;;;;;;0.10;0.10;;;;;;;28.24;34.83;98719.06;5128598;28;20038;-74
2022/09/14 10:06:25;;;;;;;0.10;0.10;;;;;;;28.51;35.24;98722.38;5110397;28;20022;-76
2022/09/14 10:08:52;;;;;;;0.10;0.10;;;;;;;27.53;36.02;98723.06;5128830;28;20032;-74
2022/09/14 10:11:28;;;;;;;0.10;0.10;;;;;;;26.31;37.32;98714.25;5128646;28;20048;-73
2022/09/14 10:13:55;;;;;;;0.20;0.20;;;;;;;24.87;38.34;98721.03;5128650;28;20083;-74
2022/09/14 10:16:20;;;;;;;0.10;0.10;;;;;;;23.94;40.30;98722.53;5128213;28;20092;-74
2022/09/14 10:18:51;;;;;;;0.10;0.10;;;;;;;23.71;40.51;98714.03;5128315;28;20027;-74
2022/09/14 10:21:19;;;;;;;0.20;0.20;;;;;;;23.58;41.58;98730.22;5128444;28;20028;-74
2022/09/14 10:23:45;;;;;;;0.15;0.15;;;;;;;23.35;40.63;98723.34;5128349;28;20023;-73
2022/09/14 10:26:13;;;;;;;0.20;0.20;;;;;;;22.61;42.64;98728.81;5128082;28;20023;-74
2022/09/14 10:28:43;;;;;;;0.15;0.15;;;;;;;23.07;43.19;98728.41;5128327;28;20031;-74
2022/09/14 10:31:16;;;;;;;0.13;0.13;;;;;;;23.81;42.70;98729.94;5128082;28;20027;-73
2022/09/14 10:33:43;;;;;;;0.20;0.20;;;;;;;24.48;40.95;98724.69;5128023;28;20019;-73
2022/09/14 10:36:36;;;;;;;0.20;0.20;;;;;;;24.11;40.60;98728.09;5127837;28;20023;-74
2022/09/14 10:39:15;;;;;;;0.20;0.20;;;;;;;24.31;40.16;98728.94;5128098;28;20045;-73
2022/09/14 10:42:30;;;;;;;0.20;0.20;;;;;;;24.49;41.70;98722.84;5128107;28;20106;-75
2022/09/14 10:45:14;;;;;;;0.20;0.20;;;;;;;25.21;39.78;98730.25;5008692;28;20033;-76
2022/09/14 10:47:39;;;;;;;0.10;0.10;;;;;;;25.58;40.04;98727.63;5025275;28;20193;-75
2022/09/14 10:50:20;;;;;;;0.10;0.10;;;;;;;25.65;39.88;98720.75;5024649;28;20466;-76
2022/09/14 10:53:06;;;;;;;0.20;0.20;;;;;;;26.60;38.95;98727.25;5039490;28;20053;-75
2022/09/14 10:55:43;;;;;;;0.15;0.15;;;;;;;27.20;38.34;98716.69;5044446;28;20069;-76
2022/09/14 10:58:43;;;;;;;0.10;0.10;;;;;;;27.82;35.88;98716.44;5044549;28;20028;-74
2022/09/14 11:01:30;;;;;;;0.20;0.20;;;;;;;26.81;36.20;98720.69;4947118;29;20146;-75
2022/09/14 11:04:38;;;;;;;0.55;0.55;;;;;;;25.58;37.93;98727.63;4934232;29;20046;-74
2022/09/14 11:07:31;;;;;;;0.10;0.10;;;;;;;25.80;38.36;98722.88;4947087;29;20034;-74
2022/09/14 11:10:14;;;;;;;0.20;0.20;;;;;;;25.84;38.24;98711.78;4946988;29;20043;-76
2022/09/14 11:13:16;;;;;;;0.20;0.20;;;;;;;25.92;37.55;98716.31;4947100;29;20032;-72
2022/09/14 11:15:55;;;;;;;0.10;0.10;;;;;;;25.49;37.65;98724.06;4985692;28;20045;-74
2022/09/14 11:18:52;;;;;;;0.20;0.20;;;;;;;25.22;39.31;98718.66;5043912;28;20037;-74
2022/09/14 11:21:48;;;;;;;0.10;0.10;;;;;;;25.73;38.51;98717.34;5027531;28;20025;-73
2022/09/14 11:24:28;;;;;;;0.20;0.20;;;;;;;25.05;38.89;98711.50;5044186;28;20056;-73
2022/09/14 11:27:30;;;;;;;2.83;1.65;;;;;;;23.83;40.15;98714.75;5043318;28;20049;-73
2022/09/14 11:30:08;;;;;;;0.30;0.30;;;;;;;22.42;42.59;98721.59;5042905;28;20036;-73
2022/09/14 11:32:44;;;;;;;0.20;0.20;;;;;;;21.45;44.59;98718.09;5044037;28;20397;-75
2022/09/14 11:35:20;;;;;;;0.20;0.20;;;;;;;20.70;46.60;98719.50;5044016;28;20036;-74
2022/09/14 11:37:59;;;;;;;0.20;0.20;;;;;;;20.38;47.42;98722.84;5131360;27;20039;-76
2022/09/14 11:40:34;;;;;;;0.20;0.20;;;;;;;20.00;48.86;98732.66;5147499;27;20027;-73
2022/09/14 11:43:27;;;;;;;0.20;0.20;;;;;;;19.75;49.41;98719.53;5147213;27;20042;-76
2022/09/14 11:46:00;;;;;;;0.20;0.20;;;;;;;19.53;50.05;98726.38;5146670;27;20468;-76
2022/09/14 11:48:53;;;;;;;0.20;0.20;;;;;;;19.27;50.62;98729.09;5128120;27;20023;-75
2022/09/14 11:51:31;;;;;;;0.20;0.20;;;;;;;19.21;50.56;98729.53;5128505;27;20120;-74
2022/09/14 11:53:56;;;;;;;1.00;1.00;;;;;;;18.98;51.34;98726.72;5128809;27;20031;-74